Time;durP1;ratioP1;P1;durP2;ratioP2;P2;SDS_P1;SDS_P2;PMS_P1;PMS_P2;Temp;Humidity;BMP_temperature;BMP_pressure;BME280_temperature;BME280_humidity;BME280_pressure;Samples;Min_cycle;Max_cycle;Signal;HPM_P1;HPM_P2
2023/07/20 00:01:18;;;;;;;2.85;1.80;;;;;;;;;;7304798;19;142442;-72
2023/07/20 00:03:54;;;;;;;1.90;1.60;;;;;;;;;;7305866;19;140610;-72
2023/07/20 00:06:22;;;;;;;3.08;1.60;;;;;;;;;;7305335;19;140658;-72
2023/07/20 00:08:49;;;;;;;2.13;1.92;;;;;;;;;;7305113;19;141229;-73
2023/07/20 00:11:16;;;;;;;2.10;1.73;;;;;;;;;;7304854;19;142296;-72
2023/07/20 00:13:43;;;;;;;1.77;1.67;;;;;;;;;;7304828;19;140848;-73
2023/07/20 00:16:11;;;;;;;4.20;1.63;;;;;;;;;;7304412;19;140616;-74
2023/07/20 00:18:38;;;;;;;1.55;1.45;;;;;;;;;;7304617;19;141097;-73
2023/07/20 00:21:07;;;;;;;2.03;1.63;;;;;;;;;;7305066;19;140773;-74
2023/07/20 00:23:34;;;;;;;1.83;1.60;;;;;;;;;;7304934;19;140771;-72
2023/07/20 00:26:02;;;;;;;1.75;1.58;;;;;;;;;;7304849;19;140659;-74
2023/07/20 00:28:29;;;;;;;1.70;1.50;;;;;;;;;;7303523;19;141052;-73
2023/07/20 00:30:56;;;;;;;1.95;1.80;;;;;;;;;;7303498;19;141920;-72
2023/07/20 00:33:23;;;;;;;1.77;1.52;;;;;;;;;;7304335;19;140512;-72
2023/07/20 00:35:50;;;;;;;1.65;1.40;;;;;;;;;;7304273;19;140759;-72
2023/07/20 00:38:17;;;;;;;1.65;1.52;;;;;;;;;;7304400;19;141767;-73
2023/07/20 00:40:44;;;;;;;2.08;1.60;;;;;;;;;;7304420;19;141948;-73
2023/07/20 00:43:11;;;;;;;2.30;1.70;;;;;;;;;;7304193;19;140606;-73
2023/07/20 00:45:38;;;;;;;2.05;1.70;;;;;;;;;;7304249;19;140758;-73
2023/07/20 00:48:06;;;;;;;2.15;1.60;;;;;;;;;;7302908;19;141056;-73
2023/07/20 00:50:34;;;;;;;2.53;1.60;;;;;;;;;;7303699;19;142950;-72
2023/07/20 00:53:03;;;;;;;1.80;1.50;;;;;;;;;;7306869;19;140671;-73
2023/07/20 00:55:31;;;;;;;1.60;1.40;;;;;;;;;;7303923;19;140690;-73
2023/07/20 00:57:59;;;;;;;1.60;1.50;;;;;;;;;;7304159;19;141553;-72
2023/07/20 01:00:26;;;;;;;1.50;1.40;;;;;;;;;;7303723;19;142772;-73
2023/07/20 01:02:53;;;;;;;1.67;1.52;;;;;;;;;;7300745;19;140785;-73
2023/07/20 01:05:21;;;;;;;1.50;1.40;;;;;;;;;;7303744;19;140543;-73
2023/07/20 01:08:14;;;;;;;1.60;1.50;;;;;;;;;;7303163;19;141094;-73
2023/07/20 01:10:48;;;;;;;1.70;1.60;;;;;;;;;;7303124;19;140758;-73
2023/07/20 01:13:16;;;;;;;1.95;1.40;;;;;;;;;;7303651;19;140630;-73
2023/07/20 01:15:48;;;;;;;1.55;1.45;;;;;;;;;;7303274;19;140679;-74
2023/07/20 01:18:16;;;;;;;2.03;1.50;;;;;;;;;;7302440;19;140761;-73
2023/07/20 01:20:43;;;;;;;1.58;1.48;;;;;;;;;;7303159;19;141979;-73
2023/07/20 01:23:19;;;;;;;1.70;1.60;;;;;;;;;;7303078;19;140606;-74
2023/07/20 01:26:05;;;;;;;1.50;1.33;;;;;;;;;;7303221;19;140632;-73
2023/07/20 01:28:32;;;;;;;1.83;1.60;;;;;;;;;;7302899;19;140531;-73
2023/07/20 01:31:06;;;;;;;1.50;1.40;;;;;;;;;;7301895;19;142520;-73
2023/07/20 01:33:34;;;;;;;1.40;1.30;;;;;;;;;;7302826;19;140501;-73
2023/07/20 01:36:01;;;;;;;1.70;1.50;;;;;;;;;;7303035;19;140599;-74
2023/07/20 01:38:29;;;;;;;1.60;1.45;;;;;;;;;;7302250;19;141010;-73
2023/07/20 01:40:57;;;;;;;1.92;1.40;;;;;;;;;;7302449;19;142043;-73
2023/07/20 01:43:24;;;;;;;1.67;1.48;;;;;;;;;;7300513;19;140653;-73
2023/07/20 01:45:51;;;;;;;1.83;1.50;;;;;;;;;;7302548;19;140738;-73
2023/07/20 01:48:18;;;;;;;1.58;1.48;;;;;;;;;;7301986;19;140672;-73
2023/07/20 01:50:45;;;;;;;1.90;1.63;;;;;;;;;;7301647;19;143232;-73
2023/07/20 01:53:12;;;;;;;1.83;1.45;;;;;;;;;;7301686;19;140677;-73
2023/07/20 01:55:39;;;;;;;2.22;1.40;;;;;;;;;;7302290;19;140688;-73
2023/07/20 01:58:06;;;;;;;2.00;1.55;;;;;;;;;;7301453;19;141044;-73
2023/07/20 02:00:33;;;;;;;1.35;1.25;;;;;;;;;;7301553;19;142505;-73
2023/07/20 02:03:00;;;;;;;1.60;1.50;;;;;;;;;;7301512;19;140604;-73
2023/07/20 02:05:27;;;;;;;1.48;1.25;;;;;;;;;;7301473;19;140855;-73
2023/07/20 02:07:55;;;;;;;1.48;1.25;;;;;;;;;;7300139;19;141528;-73
2023/07/20 02:10:22;;;;;;;1.50;1.40;;;;;;;;;;7301663;19;142219;-73
2023/07/20 02:12:49;;;;;;;1.38;1.27;;;;;;;;;;7301511;19;140522;-72
2023/07/20 02:15:19;;;;;;;1.30;1.20;;;;;;;;;;7301731;19;140616;-73
2023/07/20 02:17:46;;;;;;;1.90;1.70;;;;;;;;;;7300356;19;141217;-73
2023/07/20 02:20:13;;;;;;;1.50;1.40;;;;;;;;;;7300715;19;142582;-74
2023/07/20 02:22:40;;;;;;;1.30;1.20;;;;;;;;;;7301104;19;140720;-73
2023/07/20 02:25:08;;;;;;;1.40;1.30;;;;;;;;;;7301165;19;140525;-74
2023/07/20 02:27:35;;;;;;;1.60;1.50;;;;;;;;;;7300911;19;141585;-74
2023/07/20 02:30:03;;;;;;;1.75;1.50;;;;;;;;;;7300955;19;140889;-74
2023/07/20 02:32:31;;;;;;;1.40;1.20;;;;;;;;;;7300813;19;140647;-73
2023/07/20 02:34:59;;;;;;;1.40;1.30;;;;;;;;;;7303719;19;140530;-73
2023/07/20 02:37:26;;;;;;;1.80;1.30;;;;;;;;;;7300755;19;141017;-73
2023/07/20 02:39:53;;;;;;;1.70;1.40;;;;;;;;;;7300723;19;142544;-73
2023/07/20 02:42:22;;;;;;;1.40;1.30;;;;;;;;;;7300194;19;140736;-73
2023/07/20 02:44:49;;;;;;;1.45;1.25;;;;;;;;;;7300754;19;140674;-73
2023/07/20 02:47:16;;;;;;;1.70;1.35;;;;;;;;;;7299562;19;140673;-73
2023/07/20 02:49:43;;;;;;;1.63;1.00;;;;;;;;;;7299896;19;140802;-73
2023/07/20 02:52:10;;;;;;;1.48;1.38;;;;;;;;;;7300466;19;140379;-73
2023/07/20 02:54:37;;;;;;;1.35;1.25;;;;;;;;;;7300210;19;140668;-73
2023/07/20 02:57:05;;;;;;;1.50;1.30;;;;;;;;;;7300130;19;141722;-72
2023/07/20 02:59:32;;;;;;;1.50;1.40;;;;;;;;;;7299859;19;141823;-73
2023/07/20 03:01:59;;;;;;;1.40;1.30;;;;;;;;;;7299456;19;140755;-73
2023/07/20 03:04:26;;;;;;;1.42;1.30;;;;;;;;;;7299936;19;140416;-73
2023/07/20 03:06:53;;;;;;;1.50;1.20;;;;;;;;;;7299966;19;140957;-73
2023/07/20 03:09:20;;;;;;;1.40;1.30;;;;;;;;;;7299021;19;141986;-73
2023/07/20 03:11:48;;;;;;;1.48;1.30;;;;;;;;;;7299648;19;140532;-73
2023/07/20 03:14:15;;;;;;;2.13;1.20;;;;;;;;;;7300526;19;140644;-73
2023/07/20 03:16:42;;;;;;;1.25;1.15;;;;;;;;;;7298665;19;141545;-73
2023/07/20 03:19:09;;;;;;;1.50;1.27;;;;;;;;;;7299158;19;142804;-73
2023/07/20 03:21:40;;;;;;;1.50;1.40;;;;;;;;;;7299179;19;140470;-73
2023/07/20 03:24:08;;;;;;;1.30;1.20;;;;;;;;;;7297877;19;140662;-73
2023/07/20 03:26:36;;;;;;;1.30;1.10;;;;;;;;;;7306284;19;141364;-73
2023/07/20 03:29:04;;;;;;;1.17;1.08;;;;;;;;;;7306227;19;142530;-73
2023/07/20 03:31:31;;;;;;;1.60;1.50;;;;;;;;;;7306221;19;140313;-73
2023/07/20 03:33:58;;;;;;;1.52;1.25;;;;;;;;;;7305712;19;140502;-73
2023/07/20 03:36:25;;;;;;;1.30;1.15;;;;;;;;;;7306527;19;140853;-73
2023/07/20 03:38:52;;;;;;;1.67;1.40;;;;;;;;;;7305830;19;142875;-73
2023/07/20 03:41:21;;;;;;;1.40;1.30;;;;;;;;;;7306435;19;140737;-73
2023/07/20 03:43:48;;;;;;;1.60;1.50;;;;;;;;;;7305513;19;140439;-73
2023/07/20 03:46:16;;;;;;;1.50;1.30;;;;;;;;;;7305713;19;141256;-73
2023/07/20 03:48:43;;;;;;;1.20;1.10;;;;;;;;;;7307453;19;140797;-73
2023/07/20 03:51:10;;;;;;;1.63;1.40;;;;;;;;;;7305219;19;140694;-73
2023/07/20 03:53:37;;;;;;;1.33;1.23;;;;;;;;;;7306216;19;140611;-73
2023/07/20 03:56:04;;;;;;;1.30;1.20;;;;;;;;;;7304377;19;141135;-73
2023/07/20 03:58:31;;;;;;;1.30;1.10;;;;;;;;;;7305225;19;143154;-73
2023/07/20 04:00:58;;;;;;;1.45;1.20;;;;;;;;;;7305374;19;141991;-73
2023/07/20 04:03:26;;;;;;;1.20;1.10;;;;;;;;;;7305125;19;140674;-73
2023/07/20 04:05:56;;;;;;;1.38;1.25;;;;;;;;;;7305068;19;140684;-74
2023/07/20 04:08:24;;;;;;;1.40;1.20;;;;;;;;;;7304771;19;143128;-74
2023/07/20 04:10:52;;;;;;;1.52;1.13;;;;;;;;;;7306233;19;140517;-73
2023/07/20 04:13:19;;;;;;;1.60;1.35;;;;;;;;;;7305317;19;140393;-74
2023/07/20 04:15:46;;;;;;;1.42;1.20;;;;;;;;;;7304646;19;141290;-73
2023/07/20 04:18:13;;;;;;;1.20;1.10;;;;;;;;;;7304445;19;142488;-73
2023/07/20 04:20:40;;;;;;;1.58;1.38;;;;;;;;;;7304344;19;140347;-73
2023/07/20 04:23:07;;;;;;;1.20;1.10;;;;;;;;;;7304382;19;140722;-74
2023/07/20 04:25:38;;;;;;;1.33;1.20;;;;;;;;;;7303235;19;142223;-75
2023/07/20 04:28:09;;;;;;;1.08;0.98;;;;;;;;;;7305080;19;140802;-74
2023/07/20 04:30:36;;;;;;;;;;;;;;;;;;7305795;19;140690;-74
2023/07/20 04:33:04;;;;;;;1.27;1.10;;;;;;;;;;7303456;19;142656;-75
2023/07/20 04:35:49;;;;;;;1.15;1.05;;;;;;;;;;7303579;19;141114;-74
2023/07/20 04:38:17;;;;;;;1.30;1.20;;;;;;;;;;7302077;19;142815;-73
2023/07/20 04:40:48;;;;;;;1.20;1.10;;;;;;;;;;7303153;19;140701;-73
2023/07/20 04:43:16;;;;;;;1.48;1.17;;;;;;;;;;7304086;19;140381;-73
2023/07/20 04:45:43;;;;;;;1.20;1.10;;;;;;;;;;7304291;19;141787;-73
2023/07/20 04:48:13;;;;;;;1.20;1.10;;;;;;;;;;7301622;19;141983;-72
2023/07/20 04:50:40;;;;;;;1.00;1.00;;;;;;;;;;7303848;19;140915;-73
2023/07/20 04:53:10;;;;;;;1.13;1.02;;;;;;;;;;7303839;19;140622;-71
2023/07/20 04:55:40;;;;;;;1.10;1.00;;;;;;;;;;7303914;19;140525;-72
2023/07/20 04:58:07;;;;;;;1.20;1.13;;;;;;;;;;7303792;19;142012;-73
2023/07/20 05:00:34;;;;;;;1.10;1.00;;;;;;;;;;7303089;19;140389;-75
2023/07/20 05:03:01;;;;;;;1.40;1.30;;;;;;;;;;7301259;19;140620;-77
2023/07/20 05:05:29;;;;;;;1.30;1.20;;;;;;;;;;7303417;19;140844;-77
2023/07/20 05:07:56;;;;;;;1.33;1.05;;;;;;;;;;7303193;19;142656;-76
2023/07/20 05:10:23;;;;;;;1.00;1.00;;;;;;;;;;7304067;19;140640;-77
2023/07/20 05:12:50;;;;;;;1.25;1.15;;;;;;;;;;7303593;19;140576;-73
2023/07/20 05:15:17;;;;;;;1.50;1.17;;;;;;;;;;7300496;19;140838;-74
2023/07/20 05:17:45;;;;;;;1.17;1.08;;;;;;;;;;7302452;19;142068;-77
2023/07/20 05:20:12;;;;;;;1.27;0.82;;;;;;;;;;7303232;19;140688;-75
2023/07/20 05:22:39;;;;;;;1.33;1.10;;;;;;;;;;7303183;19;140553;-75
2023/07/20 05:25:08;;;;;;;1.52;1.00;;;;;;;;;;7303052;19;140934;-72
2023/07/20 05:27:36;;;;;;;6.18;1.20;;;;;;;;;;7302562;19;141986;-72
2023/07/20 05:30:04;;;;;;;1.27;1.05;;;;;;;;;;7302751;19;140372;-73
2023/07/20 05:32:31;;;;;;;1.15;1.05;;;;;;;;;;7301804;19;140656;-73
2023/07/20 05:34:58;;;;;;;1.20;1.10;;;;;;;;;;7302654;19;141098;-73
2023/07/20 05:37:25;;;;;;;1.02;0.93;;;;;;;;;;7302400;19;141894;-73
2023/07/20 05:39:52;;;;;;;1.20;1.10;;;;;;;;;;7302713;19;140641;-74
2023/07/20 05:42:19;;;;;;;1.23;1.13;;;;;;;;;;7302532;19;140628;-73
2023/07/20 05:44:48;;;;;;;1.70;1.10;;;;;;;;;;7301608;19;141194;-73
2023/07/20 05:47:15;;;;;;;1.13;1.02;;;;;;;;;;7301101;19;142584;-73
2023/07/20 05:49:42;;;;;;;1.15;1.05;;;;;;;;;;7300928;19;140817;-73
2023/07/20 05:52:09;;;;;;;1.10;1.00;;;;;;;;;;7303089;19;140508;-73
2023/07/20 05:54:36;;;;;;;1.30;1.20;;;;;;;;;;7301785;19;140587;-72
2023/07/20 05:57:04;;;;;;;0.85;0.85;;;;;;;;;;7301281;19;142023;-73
2023/07/20 05:59:31;;;;;;;1.05;0.95;;;;;;;;;;7302355;19;140480;-73
2023/07/20 06:01:58;;;;;;;1.10;0.90;;;;;;;;;;7301953;19;140673;-73
2023/07/20 06:04:25;;;;;;;1.00;0.85;;;;;;;;;;7298743;19;141699;-73
2023/07/20 06:06:53;;;;;;;1.38;0.98;;;;;;;;;;7302144;19;141249;-74
2023/07/20 06:09:20;;;;;;;1.20;1.02;;;;;;;;;;7302062;19;140709;-74
2023/07/20 06:11:47;;;;;;;1.08;0.93;;;;;;;;;;7301319;19;140703;-74
2023/07/20 06:14:15;;;;;;;1.20;0.98;;;;;;;;;;7300204;19;140679;-73
2023/07/20 06:16:42;;;;;;;1.30;1.20;;;;;;;;;;7299683;19;142122;-73
2023/07/20 06:19:11;;;;;;;0.85;0.85;;;;;;;;;;7300567;19;140596;-73
2023/07/20 06:21:39;;;;;;;0.90;0.90;;;;;;;;;;7301217;19;140386;-73
2023/07/20 06:24:06;;;;;;;1.20;1.05;;;;;;;;;;7300916;19;141914;-73
2023/07/20 06:26:38;;;;;;;0.80;0.80;;;;;;;;;;7300460;19;142060;-74
2023/07/20 06:29:08;;;;;;;0.80;0.80;;;;;;;;;;7300742;19;140351;-74
2023/07/20 06:31:36;;;;;;;0.90;0.90;;;;;;;;;;7301134;19;140545;-73
2023/07/20 06:34:03;;;;;;;1.10;1.00;;;;;;;;;;7299411;19;141095;-73
2023/07/20 06:36:30;;;;;;;1.00;0.90;;;;;;;;;;7300948;19;142605;-73
2023/07/20 06:38:57;;;;;;;0.85;0.85;;;;;;;;;;7300730;19;140561;-74
2023/07/20 06:41:27;;;;;;;1.02;0.90;;;;;;;;;;7300895;19;140497;-73
2023/07/20 06:43:58;;;;;;;0.80;0.80;;;;;;;;;;7300806;19;141297;-73
2023/07/20 06:46:25;;;;;;;0.77;0.77;;;;;;;;;;7299472;19;142272;-73
2023/07/20 06:48:54;;;;;;;0.70;0.70;;;;;;;;;;7300055;19;140490;-74
2023/07/20 06:51:24;;;;;;;0.75;0.75;;;;;;;;;;7301406;19;140849;-74
2023/07/20 06:53:52;;;;;;;0.80;0.80;;;;;;;;;;7298058;19;141291;-74
2023/07/20 06:56:19;;;;;;;0.90;0.90;;;;;;;;;;7299874;19;142166;-73
2023/07/20 06:58:51;;;;;;;1.10;1.00;;;;;;;;;;7300587;19;140750;-74
2023/07/20 07:01:20;;;;;;;1.00;0.88;;;;;;;;;;7306896;19;140955;-74
2023/07/20 07:03:48;;;;;;;1.05;0.75;;;;;;;;;;7306243;19;141022;-74
2023/07/20 07:06:22;;;;;;;1.00;0.90;;;;;;;;;;7307423;19;141860;-72
2023/07/20 07:08:50;;;;;;;0.95;0.85;;;;;;;;;;7306991;19;140482;-74
2023/07/20 07:11:17;;;;;;;0.85;0.80;;;;;;;;;;7307276;19;140518;-74
2023/07/20 07:13:46;;;;;;;0.70;0.70;;;;;;;;;;7306824;19;140958;-73
2023/07/20 07:16:18;;;;;;;0.90;0.90;;;;;;;;;;7306459;19;140911;-73
2023/07/20 07:18:50;;;;;;;0.77;0.77;;;;;;;;;;7306556;19;140404;-73
2023/07/20 07:21:17;;;;;;;0.90;0.90;;;;;;;;;;7306590;19;140825;-73
2023/07/20 07:23:45;;;;;;;0.75;0.75;;;;;;;;;;7306752;19;142094;-73
2023/07/20 07:26:12;;;;;;;0.95;0.90;;;;;;;;;;7306055;19;140784;-73
2023/07/20 07:28:39;;;;;;;1.30;0.85;;;;;;;;;;7306588;19;140452;-73
2023/07/20 07:31:06;;;;;;;1.00;0.90;;;;;;;;;;7306515;19;140448;-74
2023/07/20 07:33:35;;;;;;;0.75;0.75;;;;;;;;;;7304201;19;141142;-75
2023/07/20 07:36:02;;;;;;;0.70;0.70;;;;;;;;;;7305479;19;142174;-75
2023/07/20 07:38:29;;;;;;;0.70;0.70;;;;;;;;;;7307076;19;140553;-75
2023/07/20 07:41:16;;;;;;;0.95;0.80;;;;;;;;;;7305967;19;140523;-75
2023/07/20 07:43:43;;;;;;;0.93;0.80;;;;;;;;;;7304953;19;141829;-74
2023/07/20 07:46:10;;;;;;;1.33;0.90;;;;;;;;;;7305790;19;142606;-74
2023/07/20 07:48:37;;;;;;;2.08;1.10;;;;;;;;;;7305467;19;140639;-74
2023/07/20 07:51:04;;;;;;;0.90;0.90;;;;;;;;;;7305613;19;140624;-74
2023/07/20 07:53:32;;;;;;;0.80;0.80;;;;;;;;;;7305630;19;141537;-74
2023/07/20 07:56:00;;;;;;;0.70;0.70;;;;;;;;;;7305158;19;142554;-74
2023/07/20 07:58:27;;;;;;;0.75;0.70;;;;;;;;;;7306036;19;140648;-73
2023/07/20 08:00:54;;;;;;;0.90;0.90;;;;;;;;;;7305044;19;140725;-73
2023/07/20 08:03:23;;;;;;;1.30;1.00;;;;;;;;;;7303825;19;140976;-74
2023/07/20 08:05:50;;;;;;;0.77;0.70;;;;;;;;;;7305549;19;140997;-73
2023/07/20 08:08:18;;;;;;;0.80;0.80;;;;;;;;;;7305266;19;141713;-74
2023/07/20 08:10:47;;;;;;;0.82;0.80;;;;;;;;;;7305026;19;140791;-73
2023/07/20 08:13:14;;;;;;;0.70;0.70;;;;;;;;;;7305552;19;141800;-74
2023/07/20 08:15:48;;;;;;;0.80;0.80;;;;;;;;;;7304658;19;141896;-74
2023/07/20 08:18:15;;;;;;;1.10;0.95;;;;;;;;;;7304128;19;140751;-74
2023/07/20 08:23:44;;;;;;;1.10;1.00;;;;;;;;;;7304085;19;140718;-73
2023/07/20 08:35:43;;;;;;;1.35;1.17;;;;;;;;;;7303553;19;142595;-73
2023/07/20 08:50:20;;;;;;;2.72;2.10;;;;;;;;;;7302852;19;140708;-76
2023/07/20 08:52:48;;;;;;;4.00;2.10;;;;;;;;;;7304044;19;140566;-78
2023/07/20 08:55:15;;;;;;;4.72;1.95;;;;;;;;;;7304016;19;140481;-78
2023/07/20 08:57:44;;;;;;;2.25;1.90;;;;;;;;;;7303633;19;141932;-79
2023/07/20 09:00:12;;;;;;;4.05;2.22;;;;;;;;;;7303216;19;143268;-78
2023/07/20 09:02:41;;;;;;;2.95;1.73;;;;;;;;;;7304147;19;140619;-78
2023/07/20 09:05:09;;;;;;;4.05;2.00;;;;;;;;;;7302639;19;140892;-77
2023/07/20 09:07:37;;;;;;;3.42;2.10;;;;;;;;;;7303503;19;140736;-77
2023/07/20 09:10:05;;;;;;;4.30;2.10;;;;;;;;;;7303095;19;142525;-77
2023/07/20 09:12:39;;;;;;;2.28;1.60;;;;;;;;;;7300837;19;140989;-78
2023/07/20 09:15:10;;;;;;;3.75;2.10;;;;;;;;;;7303071;19;140585;-78
2023/07/20 09:17:40;;;;;;;2.88;1.92;;;;;;;;;;7302537;19;141290;-77
2023/07/20 09:20:10;;;;;;;4.43;1.97;;;;;;;;;;7301714;19;140766;-78
2023/07/20 09:22:41;;;;;;;3.10;1.95;;;;;;;;;;7301288;19;140743;-79
2023/07/20 09:25:14;;;;;;;3.63;1.92;;;;;;;;;;7303761;19;140520;-76
2023/07/20 09:27:42;;;;;;;2.65;1.70;;;;;;;;;;7302200;19;142146;-78
2023/07/20 09:30:13;;;;;;;2.85;2.08;;;;;;;;;;7303027;19;142097;-77
2023/07/20 09:32:44;;;;;;;2.63;2.00;;;;;;;;;;7303856;19;140524;-75
2023/07/20 09:35:14;;;;;;;3.78;2.20;;;;;;;;;;7303293;19;140563;-77
2023/07/20 09:37:51;;;;;;;2.30;1.98;;;;;;;;;;7303186;19;140570;-76
2023/07/20 09:40:39;;;;;;;3.05;1.90;;;;;;;;;;7302256;19;145162;-76
2023/07/20 09:43:10;;;;;;;2.83;1.90;;;;;;;;;;7302798;19;140535;-75
2023/07/20 09:45:41;;;;;;;4.53;1.95;;;;;;;;;;7301290;19;140723;-75
2023/07/20 09:48:14;;;;;;;3.17;1.70;;;;;;;;;;7302793;19;141147;-74
2023/07/20 09:50:51;;;;;;;4.60;1.83;;;;;;;;;;7301498;19;140881;-75
2023/07/20 09:53:19;;;;;;;4.38;1.98;;;;;;;;;;7301333;19;140491;-74
2023/07/20 09:55:47;;;;;;;3.08;2.05;;;;;;;;;;7302082;19;140436;-74
2023/07/20 09:58:15;;;;;;;3.42;2.05;;;;;;;;;;7301995;19;140770;-76
2023/07/20 10:00:50;;;;;;;2.53;1.83;;;;;;;;;;7301171;19;141908;-75
2023/07/20 10:03:20;;;;;;;3.65;2.30;;;;;;;;;;7302274;19;140655;-75
2023/07/20 10:05:51;;;;;;;2.92;1.90;;;;;;;;;;7301812;19;140611;-75
2023/07/20 10:08:18;;;;;;;2.70;1.80;;;;;;;;;;7302276;19;140800;-75
2023/07/20 10:10:49;;;;;;;3.05;2.00;;;;;;;;;;7301315;19;141895;-75
2023/07/20 10:13:21;;;;;;;2.97;1.80;;;;;;;;;;7302037;19;140784;-75
2023/07/20 10:56:15;;;;;;;4.82;2.95;;;;;;;;;;7299421;19;140716;-79
2023/07/20 10:58:45;;;;;;;5.78;3.90;;;;;;;;;;7299899;19;140762;-75
2023/07/20 11:01:18;;;;;;;5.47;3.67;;;;;;;;;;7298379;19;140661;-78
2023/07/20 11:03:53;;;;;;;4.22;3.28;;;;;;;;;;7298172;19;140916;-77
2023/07/20 11:06:26;;;;;;;5.97;3.38;;;;;;;;;;7297868;19;141935;-76
2023/07/20 11:09:16;;;;;;;3.42;3.00;;;;;;;;;;7297676;19;141589;-78
2023/07/20 11:11:44;;;;;;;5.47;3.08;;;;;;;;;;7300197;19;140551;-78
2023/07/20 11:14:22;;;;;;;5.88;3.35;;;;;;;;;;7297722;19;140755;-77
2023/07/20 11:19:41;;;;;;;5.05;2.97;;;;;;;;;;7298309;19;141227;-77
2023/07/20 11:22:11;;;;;;;3.45;2.78;;;;;;;;;;7300206;19;140494;-77
2023/07/20 11:24:40;;;;;;;4.22;2.63;;;;;;;;;;7299969;19;141099;-77
2023/07/20 11:27:08;;;;;;;3.47;3.03;;;;;;;;;;7298868;19;141051;-78
2023/07/20 11:29:37;;;;;;;4.45;2.92;;;;;;;;;;7299068;19;141130;-77
2023/07/20 11:32:07;;;;;;;4.60;2.80;;;;;;;;;;7298312;19;140504;-78
2023/07/20 11:34:35;;;;;;;3.30;2.53;;;;;;;;;;7296294;19;140676;-79
2023/07/20 11:40:22;;;;;;;3.00;2.50;;;;;;;;;;7260079;19;143829;-76
2023/07/20 11:42:50;;;;;;;4.07;2.70;;;;;;;;;;7298889;19;140803;-76
2023/07/20 11:45:20;;;;;;;3.88;2.63;;;;;;;;;;7298018;19;140577;-77
2023/07/20 11:47:55;;;;;;;3.20;2.70;;;;;;;;;;7306744;19;140477;-78
2023/07/20 11:50:22;;;;;;;4.45;2.80;;;;;;;;;;7305553;19;140669;-77
2023/07/20 11:52:50;;;;;;;5.10;2.53;;;;;;;;;;7305852;19;140599;-77
2023/07/20 11:55:26;;;;;;;4.27;2.60;;;;;;;;;;7304950;19;140476;-77
2023/07/20 11:58:03;;;;;;;4.07;2.55;;;;;;;;;;7304989;19;140681;-78
2023/07/20 12:00:33;;;;;;;3.55;2.58;;;;;;;;;;7308472;19;140923;-78
2023/07/20 12:03:00;;;;;;;2.92;2.55;;;;;;;;;;7305744;19;140612;-76
2023/07/20 12:05:27;;;;;;;3.35;2.58;;;;;;;;;;7306044;19;140611;-77
2023/07/20 12:07:55;;;;;;;2.50;2.25;;;;;;;;;;7305861;19;141961;-76
2023/07/20 12:10:26;;;;;;;4.30;2.53;;;;;;;;;;7304357;19;140940;-76
2023/07/20 12:12:53;;;;;;;2.83;2.40;;;;;;;;;;7306047;19;140771;-77
2023/07/20 12:15:29;;;;;;;4.57;2.80;;;;;;;;;;7305529;19;140649;-76
2023/07/20 12:17:57;;;;;;;4.03;2.55;;;;;;;;;;7305318;19;141731;-76
2023/07/20 12:20:29;;;;;;;3.47;2.60;;;;;;;;;;7303237;19;140983;-78
2023/07/20 12:22:57;;;;;;;3.20;2.90;;;;;;;;;;7305472;19;140711;-76
2023/07/20 12:28:42;;;;;;;6.15;3.38;;;;;;;;;;7257607;19;146159;-75
2023/07/20 12:31:10;;;;;;;3.33;2.35;;;;;;;;;;7303437;19;142292;-76
2023/07/20 12:43:04;;;;;;;4.30;2.72;;;;;;;;;;7226855;19;144604;-79
2023/07/20 12:45:31;;;;;;;3.35;2.33;;;;;;;;;;7305946;19;140767;-80
2023/07/20 12:47:59;;;;;;;2.97;2.50;;;;;;;;;;7306218;19;140437;-80
2023/07/20 12:50:26;;;;;;;3.25;2.10;;;;;;;;;;7305107;19;141358;-80
2023/07/20 12:52:54;;;;;;;23.50;14.57;;;;;;;;;;7305038;19;142076;-80
2023/07/20 12:55:21;;;;;;;34.10;22.92;;;;;;;;;;7306800;19;140896;-81
2023/07/20 12:57:48;;;;;;;41.50;26.58;;;;;;;;;;7304506;19;140479;-81
2023/07/20 13:00:18;;;;;;;43.03;27.45;;;;;;;;;;7306798;19;142287;-81
2023/07/20 13:02:45;;;;;;;39.75;25.38;;;;;;;;;;7307311;19;143585;-84
2023/07/20 13:05:13;;;;;;;31.90;22.77;;;;;;;;;;7302651;19;141142;-79
2023/07/20 13:07:41;;;;;;;27.27;19.48;;;;;;;;;;7304393;19;140820;-79
2023/07/20 13:10:11;;;;;;;25.42;16.50;;;;;;;;;;7303713;19;140524;-83
2023/07/20 13:12:38;;;;;;;28.35;17.95;;;;;;;;;;7304977;19;142162;-83
2023/07/20 13:15:06;;;;;;;28.38;15.70;;;;;;;;;;7308552;19;140635;-83
2023/07/20 13:17:35;;;;;;;40.35;23.50;;;;;;;;;;7305083;19;140801;-83
2023/07/20 13:20:04;;;;;;;33.00;23.20;;;;;;;;;;7301766;19;141603;-82
2023/07/20 13:22:32;;;;;;;33.60;22.30;;;;;;;;;;7302631;19;142106;-83
2023/07/20 13:24:59;;;;;;;35.08;22.42;;;;;;;;;;7302159;19;140530;-82
2023/07/20 13:27:26;;;;;;;31.08;21.58;;;;;;;;;;7302849;19;140714;-82
2023/07/20 13:29:53;;;;;;;28.65;20.20;;;;;;;;;;7300971;19;140730;-82
2023/07/20 13:32:20;;;;;;;31.08;20.15;;;;;;;;;;7300851;19;142112;-83
2023/07/20 13:34:48;;;;;;;30.45;19.58;;;;;;;;;;7300682;19;142013;-83
2023/07/20 13:37:16;;;;;;;28.42;18.92;;;;;;;;;;7302445;19;141558;-83
2023/07/20 13:39:43;;;;;;;28.48;19.05;;;;;;;;;;7304693;19;141875;-82
2023/07/20 13:42:12;;;;;;;29.52;17.95;;;;;;;;;;7303559;19;141864;-81
2023/07/20 13:44:39;;;;;;;25.30;16.33;;;;;;;;;;7304282;19;140434;-81
2023/07/20 13:47:06;;;;;;;25.30;16.95;;;;;;;;;;7303813;19;140642;-81
2023/07/20 13:49:37;;;;;;;23.43;16.03;;;;;;;;;;7302780;19;141106;-79
2023/07/20 13:52:14;;;;;;;22.70;15.75;;;;;;;;;;7308205;19;142434;-80
2023/07/20 13:54:48;;;;;;;24.42;15.30;;;;;;;;;;7320563;19;140547;-80
2023/07/20 13:57:24;;;;;;;24.25;15.27;;;;;;;;;;7306666;19;140629;-80
2023/07/20 13:59:53;;;;;;;25.10;15.43;;;;;;;;;;7308900;19;140852;-80
2023/07/20 14:02:20;;;;;;;21.95;14.93;;;;;;;;;;7299709;19;141117;-80
2023/07/20 14:07:53;;;;;;;22.55;13.55;;;;;;;;;;7296577;19;142783;-80
2023/07/20 14:10:20;;;;;;;21.50;13.65;;;;;;;;;;7301848;19;141412;-80
2023/07/20 14:12:47;;;;;;;20.40;13.13;;;;;;;;;;7303913;19;142560;-80
2023/07/20 14:15:16;;;;;;;19.80;12.68;;;;;;;;;;7307886;19;140586;-78
2023/07/20 14:17:44;;;;;;;17.30;11.45;;;;;;;;;;7322556;19;141033;-80
2023/07/20 14:20:15;;;;;;;17.02;11.32;;;;;;;;;;7304727;19;141282;-82
2023/07/20 14:22:45;;;;;;;16.33;12.32;;;;;;;;;;7308128;19;141699;-81
2023/07/20 14:25:15;;;;;;;19.20;11.80;;;;;;;;;;7303050;19;140681;-79
2023/07/20 14:27:45;;;;;;;19.15;11.50;;;;;;;;;;7305360;19;140388;-82
2023/07/20 14:30:15;;;;;;;15.85;11.38;;;;;;;;;;7303137;19;140936;-79
2023/07/20 14:32:43;;;;;;;20.33;11.85;;;;;;;;;;7306444;19;142742;-80
2023/07/20 14:35:11;;;;;;;15.55;10.60;;;;;;;;;;7301850;19;140743;-81
2023/07/20 14:37:38;;;;;;;15.90;10.55;;;;;;;;;;7305424;19;140799;-79
2023/07/20 14:40:08;;;;;;;15.20;10.13;;;;;;;;;;7301294;19;140974;-80
2023/07/20 14:42:36;;;;;;;12.23;8.87;;;;;;;;;;7301740;19;141858;-79
2023/07/20 14:45:05;;;;;;;13.73;9.27;;;;;;;;;;7301357;19;140400;-79
2023/07/20 14:47:34;;;;;;;15.25;9.43;;;;;;;;;;7300949;19;140788;-76
2023/07/20 14:50:02;;;;;;;14.75;8.85;;;;;;;;;;7299614;19;141720;-76
2023/07/20 14:52:30;;;;;;;14.93;9.00;;;;;;;;;;7299674;19;140693;-78
2023/07/20 14:55:00;;;;;;;13.13;8.38;;;;;;;;;;7302292;19;141478;-82
2023/07/20 14:57:27;;;;;;;14.15;8.55;;;;;;;;;;7299263;19;140687;-79
2023/07/20 14:59:54;;;;;;;14.23;8.27;;;;;;;;;;7299695;19;141294;-76
2023/07/20 15:02:25;;;;;;;10.13;8.00;;;;;;;;;;7298501;19;141901;-78
2023/07/20 15:04:52;;;;;;;11.40;7.57;;;;;;;;;;7298756;19;140688;-79
2023/07/20 15:07:21;;;;;;;10.85;7.35;;;;;;;;;;7294860;19;142230;-79
2023/07/20 15:09:50;;;;;;;14.15;7.32;;;;;;;;;;7302062;19;140907;-78
2023/07/20 15:12:18;;;;;;;13.65;7.50;;;;;;;;;;7299568;19;141702;-78
2023/07/20 15:14:49;;;;;;;11.50;6.80;;;;;;;;;;7299486;19;140527;-79
2023/07/20 15:17:16;;;;;;;11.00;6.68;;;;;;;;;;7301048;19;140632;-80
2023/07/20 15:19:44;;;;;;;11.05;6.60;;;;;;;;;;7299444;19;141741;-79
2023/07/20 15:22:12;;;;;;;10.32;6.38;;;;;;;;;;7306206;19;140739;-79
2023/07/20 15:24:41;;;;;;;10.15;6.05;;;;;;;;;;7307292;19;140951;-80
2023/07/20 15:27:08;;;;;;;9.40;5.95;;;;;;;;;;7307410;19;140612;-79
2023/07/20 15:29:35;;;;;;;9.18;5.68;;;;;;;;;;7308663;19;141772;-78
2023/07/20 15:32:03;;;;;;;11.38;5.82;;;;;;;;;;7307870;19;140831;-77
2023/07/20 15:34:30;;;;;;;11.25;5.50;;;;;;;;;;7307935;19;140527;-78
2023/07/20 15:36:58;;;;;;;11.57;5.95;;;;;;;;;;7307464;19;140707;-77
2023/07/20 15:39:26;;;;;;;9.80;5.47;;;;;;;;;;7306412;19;141190;-77
2023/07/20 15:41:53;;;;;;;10.63;5.57;;;;;;;;;;7307310;19;141629;-77
2023/07/20 15:44:20;;;;;;;11.05;5.63;;;;;;;;;;7303592;19;140826;-77
2023/07/20 15:46:49;;;;;;;10.00;5.25;;;;;;;;;;7303458;19;140665;-77
2023/07/20 15:49:16;;;;;;;14.23;5.65;;;;;;;;;;7306344;19;140992;-79
2023/07/20 15:51:46;;;;;;;9.30;5.10;;;;;;;;;;7305096;19;140983;-74
2023/07/20 15:54:14;;;;;;;11.90;4.53;;;;;;;;;;7305868;19;140903;-75
2023/07/20 15:56:42;;;;;;;8.40;4.57;;;;;;;;;;7305879;19;140522;-78
2023/07/20 15:59:11;;;;;;;8.70;4.40;;;;;;;;;;7306315;19;140684;-74
2023/07/20 16:01:38;;;;;;;11.43;4.97;;;;;;;;;;7304796;19;143746;-74